DCMPY EKBI-LSZH
Flight info
| Callsign | DCMPY |
|---|---|
| Flight time | N/A |
| Altitude | 40000 |
| Route | ALS M852 EKERN DCT SWALM DCT OMOGI T721 RILAX |
| Aircraft | LJ35/M-SGHRWXY/SB1 |
Departure
| Time | 2026-04-30 19:10 |
|---|---|
| Airport | Billund Airport (EKBI) |
Arrival
| Time | N/A |
|---|---|
| Airport | Zürich Airport (LSZH) |
| Time | Latitude | Longitude | Altitude | Speed | Heading |
|---|---|---|---|---|---|
| 2026-04-30 18:51 | 55.73745 | 9.13704 | 214 ft | 0 kts | 176° |
| 2026-04-30 19:06 | 55.73798 | 9.13746 | 214 ft | 14 kts | 10° |
| 2026-04-30 19:06 | 55.73846 | 9.13831 | 215 ft | 12 kts | 103° |
| 2026-04-30 19:06 | 55.73848 | 9.14277 | 218 ft | 22 kts | 85° |
| 2026-04-30 19:07 | 55.73958 | 9.14865 | 223 ft | 30 kts | 59° |
| 2026-04-30 19:07 | 55.74033 | 9.15215 | 226 ft | 29 kts | 80° |
| 2026-04-30 19:08 | 55.74066 | 9.16065 | 228 ft | 38 kts | 87° |
| 2026-04-30 19:08 | 55.74077 | 9.16890 | 236 ft | 21 kts | 87° |
| 2026-04-30 19:08 | 55.74086 | 9.17168 | 238 ft | 26 kts | 87° |
| 2026-04-30 19:09 | 55.74113 | 9.17953 | 241 ft | 30 kts | 85° |
| 2026-04-30 19:09 | 55.74127 | 9.18077 | 242 ft | 9 kts | 265° |
| 2026-04-30 19:09 | 55.74127 | 9.18041 | 242 ft | 1 kts | 268° |
| 2026-04-30 19:10 | 55.74053 | 9.15342 | 764 ft | 196 kts | 270° |
| 2026-04-30 19:10 | 55.75143 | 9.10938 | 2349 ft | 209 kts | 306° |
| 2026-04-30 19:11 | 55.75988 | 9.08784 | 3130 ft | 216 kts | 303° |
| 2026-04-30 19:11 | 55.77637 | 9.04179 | 4686 ft | 225 kts | 303° |
| 2026-04-30 19:11 | 55.78484 | 9.01824 | 5463 ft | 228 kts | 302° |
| 2026-04-30 19:12 | 55.79155 | 8.99280 | 6217 ft | 230 kts | 281° |
| 2026-04-30 19:12 | 55.79013 | 8.96493 | 6973 ft | 229 kts | 246° |
| 2026-04-30 19:12 | 55.78054 | 8.94319 | 7694 ft | 225 kts | 213° |
| 2026-04-30 19:13 | 55.75149 | 8.94089 | 9197 ft | 217 kts | 150° |
| 2026-04-30 19:13 | 55.72784 | 8.97319 | 10752 ft | 217 kts | 142° |
| 2026-04-30 19:13 | 55.71477 | 8.99006 | 11507 ft | 247 kts | 143° |
| 2026-04-30 19:14 | 55.69993 | 9.00870 | 12296 ft | 275 kts | 143° |
| 2026-04-30 19:14 | 55.68301 | 9.03016 | 13118 ft | 328 kts | 142° |
| 2026-04-30 19:14 | 55.66298 | 9.05570 | 13978 ft | 380 kts | 142° |
| 2026-04-30 19:14 | 55.64083 | 9.08368 | 15484 ft | 391 kts | 143° |
| 2026-04-30 19:15 | 55.61819 | 9.11219 | 17203 ft | 408 kts | 143° |
| 2026-04-30 19:15 | 55.57048 | 9.17254 | 20200 ft | 434 kts | 143° |
| 2026-04-30 19:15 | 55.54562 | 9.20382 | 21580 ft | 444 kts | 143° |
| 2026-04-30 19:16 | 55.52019 | 9.23578 | 22874 ft | 454 kts | 143° |
| 2026-04-30 19:16 | 55.49418 | 9.26843 | 24064 ft | 463 kts | 143° |
| 2026-04-30 19:16 | 55.44066 | 9.33546 | 25913 ft | 479 kts | 143° |
| 2026-04-30 19:17 | 55.41323 | 9.36970 | 26681 ft | 485 kts | 143° |
| 2026-04-30 19:17 | 55.35851 | 9.43783 | 27793 ft | 464 kts | 143° |
| 2026-04-30 19:17 | 55.33261 | 9.46998 | 28371 ft | 457 kts | 143° |
| 2026-04-30 19:18 | 55.28927 | 9.52381 | 30815 ft | 450 kts | 143° |
| 2026-04-30 19:18 | 55.25579 | 9.56516 | 32309 ft | 447 kts | 143° |
| 2026-04-30 19:18 | 55.23049 | 9.59639 | 33471 ft | 443 kts | 143° |
| 2026-04-30 19:19 | 55.20538 | 9.62736 | 34573 ft | 440 kts | 143° |
| 2026-04-30 19:19 | 55.18042 | 9.65809 | 35497 ft | 437 kts | 144° |
| 2026-04-30 19:19 | 55.13089 | 9.71889 | 37278 ft | 433 kts | 144° |
| 2026-04-30 19:20 | 55.10625 | 9.74907 | 38159 ft | 430 kts | 144° |
| 2026-04-30 19:20 | 55.08180 | 9.77898 | 39018 ft | 428 kts | 144° |
| 2026-04-30 19:20 | 55.03297 | 9.83856 | 40262 ft | 429 kts | 144° |
| 2026-04-30 19:21 | 55.00824 | 9.86868 | 40446 ft | 441 kts | 144° |
| 2026-04-30 19:21 | 54.95636 | 9.93052 | 40438 ft | 462 kts | 149° |
| 2026-04-30 19:22 | 54.89536 | 9.96888 | 40443 ft | 471 kts | 169° |
| 2026-04-30 19:22 | 54.79989 | 9.95887 | 40443 ft | 462 kts | 191° |
| 2026-04-30 19:23 | 54.70420 | 9.92769 | 40448 ft | 469 kts | 191° |
| 2026-04-30 19:24 | 54.60892 | 9.89668 | 40446 ft | 462 kts | 191° |
| 2026-04-30 19:25 | 54.45086 | 9.85345 | 40442 ft | 461 kts | 186° |
| 2026-04-30 19:26 | 54.32239 | 9.82918 | 40430 ft | 465 kts | 186° |
| 2026-04-30 19:27 | 54.22579 | 9.81107 | 40434 ft | 466 kts | 186° |
| 2026-04-30 19:28 | 54.12899 | 9.79305 | 40437 ft | 466 kts | 186° |
| 2026-04-30 19:29 | 53.99998 | 9.76910 | 40437 ft | 466 kts | 186° |
| 2026-04-30 19:30 | 53.87130 | 9.74534 | 40434 ft | 467 kts | 186° |
| 2026-04-30 19:31 | 53.74207 | 9.72165 | 40436 ft | 467 kts | 186° |
| 2026-04-30 19:31 | 53.64510 | 9.70396 | 40435 ft | 467 kts | 186° |
| 2026-04-30 19:32 | 53.58045 | 9.69220 | 40435 ft | 467 kts | 186° |
| 2026-04-30 19:32 | 53.51577 | 9.68051 | 40435 ft | 467 kts | 186° |
| 2026-04-30 19:33 | 53.45110 | 9.66881 | 40435 ft | 467 kts | 186° |
| 2026-04-30 19:33 | 53.38638 | 9.65718 | 40433 ft | 468 kts | 186° |
| 2026-04-30 19:34 | 53.32172 | 9.64555 | 40428 ft | 468 kts | 185° |
| 2026-04-30 19:35 | 53.22471 | 9.62822 | 40428 ft | 467 kts | 185° |
| 2026-04-30 19:35 | 53.17083 | 9.61863 | 40428 ft | 467 kts | 185° |
| 2026-04-30 19:36 | 53.10613 | 9.60712 | 40427 ft | 467 kts | 185° |
| 2026-04-30 19:36 | 53.00907 | 9.58995 | 40431 ft | 467 kts | 185° |
| 2026-04-30 19:37 | 52.94433 | 9.57854 | 40435 ft | 468 kts | 185° |
| 2026-04-30 19:37 | 52.87967 | 9.56716 | 40436 ft | 468 kts | 185° |
| 2026-04-30 19:38 | 52.81491 | 9.55582 | 40434 ft | 468 kts | 185° |
| 2026-04-30 19:38 | 52.75010 | 9.54450 | 40434 ft | 468 kts | 185° |
| 2026-04-30 19:39 | 52.68531 | 9.53321 | 40436 ft | 468 kts | 185° |
| 2026-04-30 19:39 | 52.62099 | 9.52203 | 40438 ft | 468 kts | 185° |
| 2026-04-30 19:40 | 52.55618 | 9.51082 | 40436 ft | 468 kts | 185° |
| 2026-04-30 19:40 | 52.49138 | 9.49961 | 40435 ft | 468 kts | 185° |
| 2026-04-30 19:41 | 52.42652 | 9.48845 | 40435 ft | 469 kts | 185° |
| 2026-04-30 19:41 | 52.36163 | 9.47731 | 40436 ft | 469 kts | 185° |
| 2026-04-30 19:42 | 52.29674 | 9.46621 | 40437 ft | 469 kts | 185° |
| 2026-04-30 19:42 | 52.23181 | 9.45513 | 40437 ft | 469 kts | 185° |
| 2026-04-30 19:43 | 52.16682 | 9.44408 | 40434 ft | 469 kts | 185° |
| 2026-04-30 19:44 | 52.06982 | 9.42762 | 40432 ft | 470 kts | 185° |
| 2026-04-30 19:44 | 52.00480 | 9.41665 | 40432 ft | 470 kts | 185° |
| 2026-04-30 19:45 | 51.93998 | 9.40573 | 40435 ft | 470 kts | 185° |
| 2026-04-30 19:45 | 51.87472 | 9.39477 | 40436 ft | 470 kts | 185° |
| 2026-04-30 19:46 | 51.80962 | 9.38387 | 40433 ft | 470 kts | 185° |
| 2026-04-30 19:46 | 51.74457 | 9.37301 | 40433 ft | 470 kts | 185° |
| 2026-04-30 19:47 | 51.67944 | 9.36217 | 40428 ft | 470 kts | 185° |
| 2026-04-30 19:47 | 51.61428 | 9.35135 | 40433 ft | 471 kts | 184° |
| 2026-04-30 19:48 | 51.54904 | 9.34056 | 40430 ft | 471 kts | 184° |
| 2026-04-30 19:48 | 51.48380 | 9.32979 | 40429 ft | 471 kts | 184° |
| 2026-04-30 19:49 | 51.41856 | 9.31905 | 40426 ft | 472 kts | 184° |
| 2026-04-30 19:49 | 51.32055 | 9.30299 | 40413 ft | 472 kts | 184° |
| 2026-04-30 19:50 | 51.25561 | 9.29237 | 40409 ft | 472 kts | 184° |
| 2026-04-30 19:50 | 51.19023 | 9.28172 | 40407 ft | 472 kts | 184° |
| 2026-04-30 19:51 | 51.12479 | 9.27110 | 40408 ft | 472 kts | 184° |
| 2026-04-30 19:51 | 51.05941 | 9.26048 | 40408 ft | 472 kts | 184° |
| 2026-04-30 19:52 | 50.99399 | 9.24993 | 40406 ft | 472 kts | 184° |
| 2026-04-30 19:52 | 50.92854 | 9.23939 | 40405 ft | 472 kts | 184° |
| 2026-04-30 19:53 | 50.86313 | 9.22889 | 40407 ft | 472 kts | 184° |
| 2026-04-30 19:53 | 50.79773 | 9.21841 | 40408 ft | 472 kts | 184° |
| 2026-04-30 19:54 | 50.73235 | 9.20797 | 40404 ft | 472 kts | 184° |
| 2026-04-30 19:54 | 50.66705 | 9.19504 | 40400 ft | 473 kts | 186° |
| 2026-04-30 19:55 | 50.60183 | 9.18173 | 40393 ft | 473 kts | 186° |
| 2026-04-30 19:55 | 50.53658 | 9.16809 | 40391 ft | 473 kts | 186° |
| 2026-04-30 19:56 | 50.47134 | 9.15467 | 40387 ft | 473 kts | 185° |
| 2026-04-30 19:56 | 50.40604 | 9.14119 | 40384 ft | 473 kts | 185° |
| 2026-04-30 19:57 | 50.34077 | 9.12780 | 40383 ft | 473 kts | 185° |
| 2026-04-30 19:57 | 50.27547 | 9.11440 | 40376 ft | 473 kts | 185° |
| 2026-04-30 19:58 | 50.21016 | 9.10107 | 40370 ft | 473 kts | 185° |
| 2026-04-30 19:58 | 50.14527 | 9.08785 | 40367 ft | 473 kts | 185° |
| 2026-04-30 19:59 | 50.08010 | 9.07460 | 40365 ft | 473 kts | 185° |
| 2026-04-30 20:00 | 49.98200 | 9.05473 | 40365 ft | 473 kts | 185° |
| 2026-04-30 20:00 | 49.91667 | 9.04156 | 40362 ft | 473 kts | 185° |
| 2026-04-30 20:01 | 49.81865 | 9.02182 | 40356 ft | 474 kts | 185° |
| 2026-04-30 20:01 | 49.75329 | 9.00875 | 40353 ft | 473 kts | 185° |
| 2026-04-30 20:02 | 49.65530 | 8.98905 | 40346 ft | 474 kts | 186° |
| 2026-04-30 20:03 | 49.55773 | 8.96210 | 40342 ft | 475 kts | 188° |
| 2026-04-30 20:03 | 49.49263 | 8.94447 | 40337 ft | 475 kts | 188° |
| 2026-04-30 20:04 | 49.42767 | 8.92653 | 40334 ft | 475 kts | 188° |
| 2026-04-30 20:05 | 49.33059 | 8.90009 | 40330 ft | 474 kts | 188° |
| 2026-04-30 20:05 | 49.23318 | 8.87363 | 40321 ft | 474 kts | 188° |
| 2026-04-30 20:06 | 49.16834 | 8.85603 | 40319 ft | 474 kts | 188° |
| 2026-04-30 20:06 | 49.11431 | 8.84120 | 40318 ft | 474 kts | 188° |